Tiempo atmosférico en la estación meteorológica de Coruña Del Conde, Burgos (945 m.)



Fecha
DESCASC
Temp. máxima en grados centígrados (hora)
DESCASC
Temp. mínima en grados centígrados (hora)
DESCASC
Temp. media en grados centígrados
DESCASC
Racha de viento máxima en m/sg (hora)
DESCASC
Velocidad máxima media en intervalos de 10 minutos(hora)
DESCASC
Precipitaciones diarias en mm
DESCASC
Precipitaciones de 00:00 a 06:00 en mm
DESCASC
Precipitaciones de 06:00 a 12:00 en mm
DESCASC
Precipitaciones de 12:00 a 18:00 en mm
DESCASC
Precipitaciones de 18:00 a 24:00 en mm
DESCASC
28-02-2021 12.3 (14:50) -0.3 (06:50) 6 11.67 (10:20) 7.5 (18:00) 0 0 0 0 0
27-02-2021 16.2 (15:30) 2.4 (06:00) 9.3 5.83 (16:50) 4.17 (16:50) 0 0 0 0 0
26-02-2021 15.1 (17:30) 5 (04:40) 10.1 10 (08:30) 6.11 (08:20) 0 0 0 0 0
25-02-2021 14 (16:40) 4.9 (00:00) 9.5 10.56 (09:50) 6.11 (09:50) 0 0 0 0 0
24-02-2021 15.9 (15:00) 3.6 (00:00) 9.7 9.72 (13:40) 6.67 (13:10) 0 0 0 0 0
23-02-2021 13.1 (16:40) 1.1 (00:00) 7.1 10 (10:10) 6.11 (10:20) 0.2 0 0.2 0 0
22-02-2021 6.4 (16:10) 0.2 (00:00) 3.3 8.61 (12:30) 5.83 (14:40) 5.4 4.2 1.2 0 0
21-02-2021 10.6 (13:20) 3.4 (00:00) 7 11.11 (05:30) 7.22 (04:30) 9 0 0 1 8
20-02-2021 13.9 (14:30) 5.9 (00:00) 9.9 14.17 (15:20) 8.61 (15:20) 0 0 0 0 0
19-02-2021 16.4 (16:10) 3.9 (00:00) 10.1 8.89 (17:00) 5.56 (17:20) 0 0 0 0 0
18-02-2021 14.2 (13:50) 3.5 (00:00) 8.8 15.83 (15:00) 8.61 (15:00) 0 0 0 0 0
17-02-2021 13.9 (15:50) 5.7 (00:00) 9.8 6.67 (16:00) 3.89 (17:00) 0 0 0 0 0
16-02-2021 13.7 (15:30) 4.3 (00:00) 9 10.83 (16:10) 6.39 (12:30) 0 0 0 0 0
15-02-2021 14.2 (15:50) 3.6 (00:00) 8.9 9.44 (19:00) 5.56 (18:40) 0 0 0 0 0
14-02-2021 14 (16:20) 1.1 (00:00) 7.6 6.94 (13:00) 3.89 (12:50) 0.2 0.2 0 0 0
13-02-2021 9.8 (17:20) -0.4 (00:00) 4.7 6.39 (15:10) 3.89 (16:00) 0.2 0.2 0 0 0
12-02-2021 10.9 (16:40) 4.4 (00:00) 7.6 10.83 (10:10) 6.39 (11:10) 5.2 2.4 1 1 0.8
11-02-2021 12.4 (15:10) 1.9 (00:00) 7.1 6.94 (16:50) 4.17 (16:50) 3.2 1.2 0.4 0.6 1
10-02-2021 8.8 (17:20) 1.9 (00:00) 5.4 11.67 (02:50) 6.67 (03:00) 3.6 3.6 0 0 0
09-02-2021 6.7 (13:20) 1.2 (00:00) 3.9 18.33 (14:10) 8.89 (14:10) 18.8 4.2 3.2 7 4.4
08-02-2021 6.3 (15:00) 3.2 (00:00) 4.8 13.89 (14:20) 7.5 (14:30) 6.2 3.8 0.8 1.6 0
07-02-2021 6 (15:10) -1.3 (-00:0) 2.4 9.17 (19:00) 5.28 (18:30) 4.4 0 0 0.2 4.2
06-02-2021 8.9 (13:00) 3.6 (00:00) 6.2 8.61 (17:00) 5.56 (17:10) 3.6 2.2 1.4 0 0
05-02-2021 15 (16:00) 4.7 (00:00) 9.8 10 (22:40) 6.39 (22:50) 0.2 0.2 0 0 0
04-02-2021 12.4 (16:00) 4.7 (00:00) 8.5 10.28 (15:00) 6.11 (13:10) 3 3 0 0 0
03-02-2021 10.2 (13:50) 5.3 (00:00) 7.8 10.83 (12:40) 6.39 (11:30) 5.4 0 1.6 0.4 3.4
02-02-2021 11 (14:40) 6.7 (00:00) 8.8 9.17 (12:30) 5.56 (12:30) 0.4 0 0.4 0 0
01-02-2021 11 (14:10) 6 (00:00) 8.5 16.39 (00:40) 9.72 (01:40) 0 0 0 0 0
31-01-2021 10.3 (19:50) 4 (00:00) 7.2 16.67 (23:59) 9.72 (23:20) 2.8 0 2.6 0.2 0
30-01-2021 8.6 (02:40) 3.9 (00:00) 6.3 19.44 (12:20) 10.56 (12:50) 6.8 4.4 0.2 0.4 1.8

Gráficas

Temp. máximas Temp. mínimas Temp. medias Precipitaciones Rachas de viento máximas Velocidades máximas media en intervalos de 10 minutos

Datos horarios

Fecha y hora oficial Temperatura (ºC) Velocidad del viento (km/h) Dirección del viento Racha (km/h) Dirección de racha Precipitación (mm) Presión (hPa) Tendencia (hPa) Humedad (%)
2021-02-28 23:00:00 7.1 18 Sudeste 30 Sudeste 0 -- -- 72
2021-02-28 22:00:00 7.9 17 Sudeste 28 Sudeste 0 -- -- 71
2021-02-28 21:00:00 8.6 12 Sudeste 25 Sudeste 0 -- -- 68
2021-02-28 20:00:00 9.2 15 Sudeste 32 Sur 0 -- -- 65
2021-02-28 19:00:00 9.7 20 Sur 37 Sur 0 -- -- 62
2021-02-28 18:00:00 10.3 27 Sur 38 Sur 0 -- -- 57
2021-02-28 17:00:00 11.2 24 Sur 37 Sur 0 -- -- 52
2021-02-28 16:00:00 11.6 17 Sudeste 32 Sudeste 0 -- -- 54
2021-02-28 15:00:00 12.3 9 Sur 26 Sudeste 0 -- -- 47
2021-02-28 14:00:00 12 13 Sudeste 29 Sudeste 0 -- -- 51
2021-02-28 13:00:00 10.7 17 Este 36 Sudeste 0 -- -- 55
2021-02-28 12:00:00 8.7 22 Este 38 Este 0 -- -- 65
2021-02-28 11:00:00 6.8 22 Este 42 Este 0 -- -- 69
2021-02-28 10:00:00 5.3 23 Este 41 Este 0 -- -- 71
2021-02-28 09:00:00 3.1 13 Sudeste 23 Este 0 -- -- 74
2021-02-28 08:00:00 1.2 13 Este 22 Este 0 -- -- 79
2021-02-28 07:00:00 -0.2 9 Este 17 Este 0 -- -- 79
2021-02-28 06:00:00 0.4 7 Este 14 Este 0 -- -- 76
2021-02-28 05:00:00 0.9 3 Nordeste 15 Este 0 -- -- 73
2021-02-28 04:00:00 1 6 Este 10 Este 0 -- -- 74
2021-02-28 03:00:00 2.3 7 Este 12 Este 0 -- -- 69
2021-02-28 02:00:00 3.2 8 Este 12 Este 0 -- -- 70
2021-02-28 01:00:00 3.9 8 Este 11 Este 0 -- -- 72
2021-02-28 00:00:00 4.2 0 Calma 12 Este 0 -- -- 74
2021-02-27 23:00:00 5.4 8 Este 13 Este 0 -- -- 72
2021-02-27 22:00:00 5.3 11 Este 15 Este 0 -- -- 65
2021-02-27 21:00:00 7.1 6 Nordeste 10 Nordeste 0 -- -- 61
2021-02-27 20:00:00 9.3 6 Noroeste 17 Oeste 0 -- -- 68
2021-02-27 19:00:00 11.9 12 Oeste 18 Oeste 0 -- -- 57
2021-02-27 18:00:00 13.7 11 Oeste 21 Oeste 0 -- -- 49
2021-02-27 17:00:00 15.4 14 Oeste 21 Noroeste 0 -- -- 46
2021-02-27 16:00:00 16.2 10 Oeste 18 Oeste 0 -- -- 43
2021-02-27 15:00:00 15.5 11 Oeste 21 Sudoeste 0 -- -- 42
2021-02-27 14:00:00 14.1 6 Oeste 14 Noroeste 0 -- -- 50
2021-02-27 13:00:00 12.6 3 Noroeste 12 Noroeste 0 -- -- 56
2021-02-27 12:00:00 11.5 4 Sur 10 Sur 0 -- -- 61
2021-02-27 11:00:00 9.4 4 Sudoeste 8 Oeste 0 -- -- 71
2021-02-27 10:00:00 6 2 Noroeste 9 Norte 0 -- -- 84
2021-02-27 09:00:00 3.5 0 Calma 8 Nordeste 0 -- -- 88
2021-02-27 08:00:00 2.6 8 Nordeste 11 Nordeste 0 -- -- 90
2021-02-27 07:00:00 2.7 9 Nordeste 16 Nordeste 0 -- -- 90
2021-02-27 06:00:00 2.4 3 Nordeste 7 Nordeste 0 -- -- 90
2021-02-27 05:00:00 2.9 4 Nordeste 8 Nordeste 0 -- -- 92
2021-02-27 04:00:00 3.6 5 Nordeste 12 Este 0 -- -- 90
2021-02-27 03:00:00 5.4 8 Este 15 Este 0 -- -- 89
2021-02-27 02:00:00 5.9 9 Este 14 Este 0 -- -- 88
2021-02-27 01:00:00 6 5 Nordeste 13 Sudeste 0 -- -- 85
2021-02-27 00:00:00 6.9 6 Este 15 Sudeste 0 -- -- 82
2021-02-26 23:00:00 8.1 9 Este 22 Este 0 -- -- 77
2021-02-26 22:00:00 9 5 Este 19 Sudeste 0 -- -- 70
2021-02-26 21:00:00 10 8 Este 17 Este 0 -- -- 63
2021-02-26 20:00:00 10.8 10 Este 17 Este 0 -- -- 61
2021-02-26 19:00:00 12.5 7 Este 19 Este 0 -- -- 52
2021-02-26 18:00:00 14.9 11 Este 23 Este 0 -- -- 46
2021-02-26 17:00:00 14.5 9 Este 15 Este 0 -- -- 48
2021-02-26 16:00:00 14.3 12 Este 19 Sudeste 0 -- -- 48
2021-02-26 15:00:00 14.2 12 Sudeste 23 Este 0 -- -- 48
2021-02-26 14:00:00 13.2 10 Este 28 Este 0 -- -- 55
2021-02-26 13:00:00 11.3 17 Este 31 Este 0 -- -- 62
2021-02-26 12:00:00 10 20 Este 31 Este 0 -- -- 71
2021-02-26 11:00:00 9.1 18 Este 31 Este 0 -- -- 76
2021-02-26 10:00:00 7.5 14 Este 33 Este 0 -- -- 84
2021-02-26 09:00:00 6.4 17 Este 36 Sudeste 0 -- -- 88
2021-02-26 08:00:00 5.8 18 Este 32 Sudeste 0 -- -- 88
2021-02-26 07:00:00 6.6 13 Este 26 Este 0 -- -- 83
2021-02-26 06:00:00 7 12 Este 23 Sudeste 0 -- -- 80
2021-02-26 05:00:00 6.8 13 Este 24 Este 0 -- -- 82
2021-02-26 04:00:00 6 6 Este 11 Nordeste 0 -- -- 78
2021-02-26 03:00:00 6.1 9 Este 13 Este 0 -- -- 79
2021-02-26 02:00:00 6.6 7 Sudeste 13 Este 0 -- -- 79
2021-02-26 01:00:00 7 9 Este 23 Sudeste 0 -- -- 77
2021-02-26 00:00:00 8 16 Sudeste 26 Sudeste 0 -- -- 72
2021-02-25 23:00:00 8.4 12 Este 21 Sudeste 0 -- -- 68
2021-02-25 22:00:00 8.4 10 Este 19 Este 0 -- -- 66
2021-02-25 21:00:00 8.8 10 Este 17 Este 0 -- -- 65
2021-02-25 20:00:00 9.7 10 Este 17 Sudeste 0 -- -- 62
2021-02-25 19:00:00 10.9 12 Sudeste 18 Sudeste 0 -- -- 59
2021-02-25 18:00:00 13 12 Sudeste 22 Sudeste 0 -- -- 52
2021-02-25 17:00:00 13.7 8 Sudeste 21 Sudeste 0 -- -- 50
2021-02-25 16:00:00 13.7 13 Sudeste 23 Sudeste 0 -- -- 51
2021-02-25 15:00:00 13.4 14 Sudeste 24 Sudeste 0 -- -- 52
2021-02-25 14:00:00 12.3 11 Sudeste 19 Sudeste 0 -- -- 58
2021-02-25 13:00:00 11.1 13 Este 25 Este 0 -- -- 64
2021-02-25 12:00:00 9.6 15 Este 24 Este 0 -- -- 68
2021-02-25 11:00:00 8.3 16 Este 30 Este 0 -- -- 72
2021-02-25 10:00:00 6.9 19 Sudeste 38 Sudeste 0 -- -- 79
2021-02-25 09:00:00 5.9 14 Este 32 Este 0 -- -- 83
2021-02-25 08:00:00 5.1 18 Este 32 Este 0 -- -- 85
2021-02-25 07:00:00 5.2 14 Este 29 Este 0 -- -- 85
2021-02-25 06:00:00 5.2 15 Este 31 Este 0 -- -- 85
2021-02-25 05:00:00 5.3 15 Este 22 Este 0 -- -- 84
2021-02-25 04:00:00 5.4 12 Este 19 Este 0 -- -- 83
2021-02-25 03:00:00 5.7 12 Este 20 Este 0 -- -- 83
2021-02-25 02:00:00 6.2 12 Este 19 Este 0 -- -- 84
2021-02-25 01:00:00 5.2 8 Este 12 Este 0 -- -- 86
2021-02-25 00:00:00 5.7 8 Este 17 Sudeste 0 -- -- 85
2021-02-24 23:00:00 6.7 0 Calma 19 Sudeste 0 -- -- 81
2021-02-24 22:00:00 6.9 13 Sudeste 17 Sudeste 0 -- -- 81
2021-02-24 21:00:00 8.3 4 Este 10 Sur 0 -- -- 76
2021-02-24 20:00:00 8.6 10 Sudeste 13 Sur 0 -- -- 75
2021-02-24 19:00:00 10.9 2 Sudoeste 19 Sur 0 -- -- 66
2021-02-24 18:00:00 13.6 12 Sur 24 Sur 0 -- -- 55
2021-02-24 17:00:00 15 17 Sur 28 Sudoeste 0 -- -- 47
2021-02-24 16:00:00 15.5 16 Sur 33 Sudoeste 0 -- -- 46
2021-02-24 15:00:00 15.9 18 Sur 34 Sudoeste 0 -- -- 45
2021-02-24 14:00:00 15.4 18 Sudeste 35 Sudeste 0 -- -- 45
2021-02-24 13:00:00 14.2 17 Sudeste 32 Sudeste 0 -- -- 56
2021-02-24 12:00:00 12.1 16 Sudeste 31 Sudeste 0 -- -- 64
2021-02-24 11:00:00 9.6 18 Sudeste 29 Sudeste 0 -- -- 71
2021-02-24 10:00:00 7.5 16 Sudeste 27 Sudeste 0 -- -- 77
2021-02-24 09:00:00 5.3 13 Este 26 Sudeste 0 -- -- 84
2021-02-24 08:00:00 3.8 16 Este 27 Sudeste 0 -- -- 88
2021-02-24 07:00:00 3.7 12 Este 22 Sudeste 0 -- -- 88
2021-02-24 06:00:00 3.6 11 Este 18 Este 0 -- -- 88
2021-02-24 05:00:00 4 14 Sudeste 23 Sudeste 0 -- -- 86
2021-02-24 04:00:00 4.4 12 Este 20 Sudeste 0 -- -- 85
2021-02-24 03:00:00 4.5 11 Este 27 Este 0 -- -- 85
2021-02-24 02:00:00 5 15 Sudeste 26 Sudeste 0 -- -- 83
2021-02-24 01:00:00 4.5 13 Este 20 Sudeste 0 -- -- 84
2021-02-24 00:00:00 4.7 3 Este 22 Sudeste 0 -- -- 81
2021-02-23 23:00:00 5.1 8 Sudeste 17 Sudeste 0 -- -- 80
2021-02-23 22:00:00 5.2 9 Sudeste 13 Sudeste 0 -- -- 80
2021-02-23 21:00:00 6.2 10 Sudeste 19 Sudeste 0 -- -- 75
2021-02-23 20:00:00 7.4 6 Sur 18 Sur 0 -- -- 71
2021-02-23 19:00:00 9.7 10 Sudeste 28 Sudeste 0 -- -- 64
2021-02-23 18:00:00 12.5 13 Sudeste 22 Sudeste 0 -- -- 53
2021-02-23 17:00:00 12.9 7 Sur 20 Sudoeste 0 -- -- 50
2021-02-23 16:00:00 12.8 12 Sudoeste 22 Sudeste 0 -- -- 55
2021-02-23 15:00:00 11.8 10 Sudeste 22 Sudeste 0 -- -- 60
2021-02-23 14:00:00 10.6 12 Sudeste 29 Sudeste 0 -- -- 66
2021-02-23 13:00:00 9 21 Sudeste 31 Sudeste 0 -- -- 73
2021-02-23 12:00:00 7.2 15 Sudeste 32 Este 0 -- -- 81
2021-02-23 11:00:00 5.3 16 Este 36 Sudeste 0.2 -- -- 86
2021-02-23 10:00:00 4.8 18 Sudeste 32 Sudeste 0 -- -- 87
2021-02-23 09:00:00 2.8 6 Este 21 Este 0 -- -- 97
2021-02-23 08:00:00 1.2 11 Este 21 Sudeste 0 -- -- 95
2021-02-23 07:00:00 1.2 10 Este 15 Este 0 -- -- 95
2021-02-23 06:00:00 1.2 12 Este 17 Sudeste 0 -- -- 95
2021-02-23 05:00:00 2 5 Sudeste 8 Este 0 -- -- 94
2021-02-23 04:00:00 2 3 Sur 4 Sur 0 -- -- 95
2021-02-23 03:00:00 1.3 2 Este 7 Este 0 -- -- 94
2021-02-23 02:00:00 1.8 5 Este 8 Este 0 -- -- 95
2021-02-23 01:00:00 2.3 3 Sudeste 5 Este 0 -- -- 94
2021-02-23 00:00:00 2.3 0 Calma 3 Nordeste 0 -- -- 94
2021-02-22 23:00:00 2.8 3 Sudoeste 6 Sudeste 0 -- -- 92
2021-02-22 22:00:00 3.5 3 Sudeste 7 Sudoeste 0 -- -- 89
2021-02-22 21:00:00 4.2 0 Calma 2 Sudeste 0 -- -- 87
2021-02-22 20:00:00 4.9 0 Calma 11 Oeste 0 -- -- 84
2021-02-22 19:00:00 5.3 5 Oeste 14 Oeste 0 -- -- 84
2021-02-22 18:00:00 5.6 9 Oeste 19 Noroeste 0 -- -- 83
2021-02-22 17:00:00 6.2 13 Noroeste 25 Noroeste 0 -- -- 76
2021-02-22 16:00:00 6.3 15 Noroeste 28 Noroeste 0 -- -- 75
2021-02-22 15:00:00 5.4 16 Noroeste 28 Noroeste 0 -- -- 81
2021-02-22 14:00:00 5.2 20 Noroeste 30 Noroeste 0 -- -- 82
2021-02-22 13:00:00 4.5 21 Noroeste 31 Oeste 0 -- -- 87
2021-02-22 12:00:00 3.5 20 Noroeste 30 Noroeste 0 -- -- 94
2021-02-22 11:00:00 2.6 17 Noroeste 31 Noroeste 0 -- -- 96
2021-02-22 10:00:00 1.5 14 Noroeste 25 Noroeste 0.6 -- -- 97
2021-02-22 09:00:00 0.2 8 Oeste 21 Oeste 0 -- -- 97
2021-02-22 08:00:00 0.3 14 Oeste 26 Oeste 0.2 -- -- 97
2021-02-22 07:00:00 0.4 15 Oeste 30 Noroeste 0.4 -- -- 96
2021-02-22 06:00:00 0.4 16 Noroeste 26 Noroeste 0.6 -- -- 96
2021-02-22 05:00:00 0.5 13 Noroeste 26 Oeste 1 -- -- 96
2021-02-22 04:00:00 1.6 12 Sudoeste 23 Sudoeste 0.2 -- -- 96
2021-02-22 03:00:00 1.5 15 Oeste 23 Oeste 1 -- -- 95
2021-02-22 02:00:00 1.7 10 Sudoeste 24 Sudoeste 1.2 -- -- 95
2021-02-22 01:00:00 2.1 13 Sudoeste 25 Sudoeste 0.2 -- -- 94
2021-02-22 00:00:00 3.4 13 Oeste 28 Sudoeste 1.8 -- -- 94
2021-02-21 23:00:00 4.6 15 Sudoeste 29 Sudoeste 2 -- -- 93
2021-02-21 22:00:00 6.3 7 Oeste 13 Oeste 1.8 -- -- 93
2021-02-21 21:00:00 6.9 6 Sudoeste 16 Sur 1.6 -- -- 92
2021-02-21 20:00:00 7.8 6 Sudeste 11 Este 0.4 -- -- 91
2021-02-21 19:00:00 7.9 7 Sudeste 17 Este 0.4 -- -- 90
2021-02-21 18:00:00 8.1 9 Este 24 Este 0.4 -- -- 88
2021-02-21 17:00:00 8.9 6 Este 16 Este 0.4 -- -- 80
2021-02-21 16:00:00 9.2 10 Sudeste 25 Sudeste 0.2 -- -- 76
2021-02-21 15:00:00 10.3 14 Sudeste 33 Sudeste 0 -- -- 62
2021-02-21 14:00:00 10.5 21 Sudeste 36 Sudeste 0 -- -- 59
2021-02-21 13:00:00 10.4 19 Sudeste 35 Sudeste 0 -- -- 59
2021-02-21 12:00:00 10 20 Sudeste 33 Sudeste 0 -- -- 59
2021-02-21 11:00:00 8.1 19 Sudeste 32 Sudeste 0 -- -- 66
2021-02-21 10:00:00 6.9 15 Sudeste 29 Sudeste 0 -- -- 70
2021-02-21 09:00:00 6.4 15 Sudeste 29 Sudeste 0 -- -- 72
2021-02-21 08:00:00 7.3 16 Sudeste 35 Sudeste 0 -- -- 63
2021-02-21 07:00:00 7.8 19 Sudeste 37 Sudeste 0 -- -- 61
2021-02-21 06:00:00 8 17 Sudeste 40 Sudeste 0 -- -- 63
2021-02-21 05:00:00 8.1 23 Sudeste 39 Sudeste 0 -- -- 63
2021-02-21 04:00:00 8.1 19 Sudeste 31 Sudeste 0 -- -- 66
2021-02-21 03:00:00 8.8 15 Sudeste 27 Sudeste 0 -- -- 64
2021-02-21 02:00:00 8.9 14 Sudeste 35 Sudeste 0 -- -- 63
2021-02-21 01:00:00 9.6 23 Sudeste 38 Sudeste 0 -- -- 56
2021-02-21 00:00:00 10.2 21 Sudeste 38 Sudeste 0 -- -- 46
2021-02-20 23:00:00 10.2 17 Sudeste 28 Sudeste 0 -- -- 45
2021-02-20 22:00:00 10.6 10 Sudeste 21 Sudeste 0 -- -- 43
2021-02-20 21:00:00 11 8 Sudeste 22 Sudeste 0 -- -- 43
2021-02-20 20:00:00 11.7 17 Sudeste 33 Sur 0 -- -- 43
2021-02-20 19:00:00 11.7 8 Este 19 Sudeste 0 -- -- 43
2021-02-20 18:00:00 12.3 18 Sudeste 30 Sudeste 0 -- -- 43
2021-02-20 17:00:00 13 19 Sur 35 Sur 0 -- -- 41
2021-02-20 16:00:00 13.4 20 Sur 51 Sudoeste 0 -- -- 39
2021-02-20 15:00:00 13.6 21 Sur 46 Sur 0 -- -- 38
2021-02-20 14:00:00 13.7 16 Sur 27 Sur 0 -- -- 41
2021-02-20 13:00:00 12.6 15 Sur 33 Sur 0 -- -- 42
2021-02-20 12:00:00 12.1 13 Sur 22 Sudeste 0 -- -- 47
2021-02-20 11:00:00 10.7 13 Sudeste 23 Sudeste 0 -- -- 55
2021-02-20 10:00:00 8.8 17 Sudeste 30 Sudeste 0 -- -- 56
2021-02-20 09:00:00 6.9 17 Sudeste 33 Sudeste 0 -- -- 63
2021-02-20 08:00:00 6.2 17 Sudeste 30 Sudeste 0 -- -- 65
2021-02-20 07:00:00 6.3 17 Sudeste 32 Sudeste 0 -- -- 63
2021-02-20 06:00:00 8.1 17 Sudeste 37 Sur 0 -- -- 55
2021-02-20 05:00:00 9 21 Sudeste 34 Sur 0 -- -- 48
2021-02-20 04:00:00 6.8 12 Sudeste 23 Sur 0 -- -- 56
2021-02-20 03:00:00 7.4 15 Sudeste 22 Sudeste 0 -- -- 53
2021-02-20 02:00:00 7.4 11 Sudeste 27 Sur 0 -- -- 56
2021-02-20 01:00:00 8.4 14 Sudeste 24 Sur 0 -- -- 54
2021-02-20 00:00:00 6.9 12 Sudeste 16 Sudeste 0 -- -- 59
2021-02-19 23:00:00 7.6 6 Sudeste 19 Sudeste 0 -- -- 55
2021-02-19 22:00:00 7.5 12 Sudeste 19 Sudeste 0 -- -- 57
2021-02-19 21:00:00 9 11 Sur 17 Sur 0 -- -- 53
2021-02-19 20:00:00 10.1 12 Sur 18 Sur 0 -- -- 50
2021-02-19 19:00:00 11.9 14 Sur 30 Sudoeste 0 -- -- 46
2021-02-19 18:00:00 13.5 13 Sudoeste 32 Sur 0 -- -- 40
2021-02-19 17:00:00 15.9 19 Sudoeste 32 Sudoeste 0 -- -- 39
2021-02-19 16:00:00 16.2 17 Sudoeste 31 Sudoeste 0 -- -- 39
2021-02-19 15:00:00 16.2 14 Sur 28 Oeste 0 -- -- 38
2021-02-19 14:00:00 15.2 13 Sudoeste 22 Sudoeste 0 -- -- 35
2021-02-19 13:00:00 13.6 3 Nordeste 14 Oeste 0 -- -- 46
2021-02-19 12:00:00 12.2 5 Sur 11 Sur 0 -- -- 48
2021-02-19 11:00:00 10.5 5 Sur 10 Sudeste 0 -- -- 52
2021-02-19 10:00:00 8.2 6 Sudeste 10 Sudeste 0 -- -- 60
2021-02-19 09:00:00 5.3 5 Sudeste 9 Sudeste 0 -- -- 70
2021-02-19 08:00:00 4 3 Nordeste 11 Sudeste 0 -- -- 74
2021-02-19 07:00:00 4.2 8 Sudeste 11 Sudeste 0 -- -- 69
2021-02-19 06:00:00 5.2 0 Calma 6 Sur 0 -- -- 67
2021-02-19 05:00:00 6.4 4 Sur 10 Sur 0 -- -- 67
2021-02-19 04:00:00 6.6 7 Sudeste 12 Sudeste 0 -- -- 69
2021-02-19 03:00:00 7.4 5 Sur 12 Sur 0 -- -- 66
2021-02-19 02:00:00 7.8 7 Sudoeste 14 Sur 0 -- -- 64
2021-02-19 01:00:00 7.3 7 Sur 12 Sur 0 -- -- 68
2021-02-19 00:00:00 7.4 3 Sur 6 Sur 0 -- -- 74
2021-02-18 23:00:00 7.6 5 Sudeste 8 Sudeste 0 -- -- 73
2021-02-18 22:00:00 8.1 5 Sudoeste 16 Sudoeste 0 -- -- 68
2021-02-18 21:00:00 7.8 7 Sudoeste 13 Sur 0 -- -- 70
2021-02-18 20:00:00 9.1 8 Oeste 13 Oeste 0 -- -- 65
2021-02-18 19:00:00 10.3 7 Sudoeste 29 Sudoeste 0 -- -- 60
2021-02-18 18:00:00 12.2 17 Oeste 34 Sudoeste 0 -- -- 51
2021-02-18 17:00:00 13.1 23 Oeste 46 Oeste 0 -- -- 45
2021-02-18 16:00:00 13.4 30 Oeste 52 Oeste 0 -- -- 42
2021-02-18 15:00:00 13.9 31 Sudoeste 57 Oeste 0 -- -- 36
2021-02-18 14:00:00 13.9 22 Oeste 45 Oeste 0 -- -- 41
2021-02-18 13:00:00 13.4 19 Oeste 39 Oeste 0 -- -- 43
2021-02-18 12:00:00 12 13 Sudoeste 24 Sudoeste 0 -- -- 51
2021-02-18 11:00:00 9.3 8 Sur 15 Sudeste 0 -- -- 61
2021-02-18 10:00:00 7.6 5 Sudeste 9 Sur 0 -- -- 63
2021-02-18 09:00:00 5.9 7 Sur 13 Sur 0 -- -- 67
2021-02-18 08:00:00 5.1 8 Sudeste 11 Sudeste 0 -- -- 69
2021-02-18 07:00:00 4.9 7 Sudeste 10 Sudeste 0 -- -- 72
2021-02-18 06:00:00 4.4 0 Calma 10 Sudeste 0 -- -- 77
2021-02-18 05:00:00 3.7 2 Sudeste 8 Sudeste 0 -- -- 83
2021-02-18 04:00:00 4.9 5 Sudeste 12 Sudeste 0 -- -- 78
2021-02-18 03:00:00 5.3 9 Sudeste 12 Sudeste 0 -- -- 79
2021-02-18 02:00:00 5.6 9 Este 13 Este 0 -- -- 82
2021-02-18 01:00:00 5.5 8 Este 13 Sudeste 0 -- -- 85
2021-02-18 00:00:00 5.7 5 Este 10 Este 0 -- -- 87
2021-02-17 23:00:00 6.7 7 Este 13 Este 0 -- -- 86
2021-02-17 22:00:00 7.2 6 Sudeste 11 Sudeste 0 -- -- 85
2021-02-17 21:00:00 7.8 8 Sudeste 11 Sudeste 0 -- -- 83
2021-02-17 20:00:00 9.7 3 Sudeste 4 Sudeste 0 -- -- 76
2021-02-17 19:00:00 11.5 0 Calma 10 Oeste 0 -- -- 70
2021-02-17 18:00:00 13.2 7 Sudoeste 18 Sudoeste 0 -- -- 64
2021-02-17 17:00:00 13.2 14 Oeste 24 Oeste 0 -- -- 63
2021-02-17 16:00:00 13.6 12 Oeste 24 Oeste 0 -- -- 62
2021-02-17 15:00:00 13 9 Sudoeste 21 Sudoeste 0 -- -- 68
2021-02-17 14:00:00 11.7 2 Sur 9 Sudoeste 0 -- -- 75
2021-02-17 13:00:00 10.8 5 Sur 12 Sur 0 -- -- 78
2021-02-17 12:00:00 9.6 6 Sudeste 10 Sur 0 -- -- 82
2021-02-17 11:00:00 8.5 5 Sudeste 9 Sudeste 0 -- -- 86
2021-02-17 10:00:00 7.6 5 Sudeste 8 Sudeste 0 -- -- 92
2021-02-17 09:00:00 6.7 2 Este 6 Este 0 -- -- 93
2021-02-17 08:00:00 6.3 4 Sudeste 5 Sudeste 0 -- -- 92
2021-02-17 07:00:00 6.4 3 Sudeste 8 Sudeste 0 -- -- 92
2021-02-17 06:00:00 6.7 3 Sudeste 5 Sudeste 0 -- -- 90
2021-02-17 05:00:00 6.5 2 Sudeste 4 Sudeste 0 -- -- 91
2021-02-17 04:00:00 6.6 3 Sudeste 5 Sudeste 0 -- -- 89
2021-02-17 03:00:00 7.5 3 Sudeste 5 Sudoeste 0 -- -- 88
2021-02-17 02:00:00 7.9 3 Sudoeste 8 Oeste 0 -- -- 87
2021-02-17 01:00:00 7.8 2 Oeste 6 Sudoeste 0 -- -- 86
2021-02-17 00:00:00 8.3 4 Sudoeste 13 Oeste 0 -- -- 85
2021-02-16 23:00:00 9 9 Oeste 17 Oeste 0 -- -- 79
2021-02-16 22:00:00 8.9 8 Sudoeste 14 Oeste 0 -- -- 79
2021-02-16 21:00:00 9.3 8 Oeste 16 Oeste 0 -- -- 74
2021-02-16 20:00:00 10 9 Oeste 17 Oeste 0 -- -- 72
2021-02-16 19:00:00 10.7 9 Oeste 21 Oeste 0 -- -- 68
2021-02-16 18:00:00 11.5 13 Oeste 31 Oeste 0 -- -- 63
2021-02-16 17:00:00 12.4 15 Oeste 39 Sudoeste 0 -- -- 56
2021-02-16 16:00:00 13.1 23 Oeste 36 Sudoeste 0 -- -- 51
2021-02-16 15:00:00 13.3 19 Oeste 33 Oeste 0 -- -- 56
2021-02-16 14:00:00 12.1 17 Oeste 37 Oeste 0 -- -- 59
2021-02-16 13:00:00 12.3 21 Oeste 38 Oeste 0 -- -- 59
2021-02-16 12:00:00 11.1 13 Oeste 25 Noroeste 0 -- -- 65
2021-02-16 11:00:00 9.5 3 Nordeste 15 Este 0 -- -- 74
2021-02-16 10:00:00 6.9 6 Este 16 Este 0 -- -- 78
2021-02-16 09:00:00 4.7 5 Este 21 Sudeste 0 -- -- 86
2021-02-16 08:00:00 4.5 16 Este 26 Este 0 -- -- 86
2021-02-16 07:00:00 4.8 16 Este 30 Este 0 -- -- 86
2021-02-16 06:00:00 5 18 Este 28 Este 0 -- -- 86
2021-02-16 05:00:00 5.3 17 Este 29 Este 0 -- -- 86
2021-02-16 04:00:00 5.5 20 Este 32 Este 0 -- -- 86
2021-02-16 03:00:00 5.9 18 Este 27 Este 0 -- -- 87
2021-02-16 02:00:00 6.2 16 Este 28 Este 0 -- -- 85
2021-02-16 01:00:00 6.3 13 Este 22 Este 0 -- -- 83
2021-02-16 00:00:00 6.6 13 Este 28 Este 0 -- -- 82
2021-02-15 23:00:00 6.9 16 Este 24 Este 0 -- -- 81
2021-02-15 22:00:00 7.1 15 Este 23 Sudeste 0 -- -- 79
2021-02-15 21:00:00 7.7 11 Este 28 Sudeste 0 -- -- 76
2021-02-15 20:00:00 8.7 14 Este 26 Este 0 -- -- 74
2021-02-15 19:00:00 10.7 18 Sudeste 34 Sudeste 0 -- -- 69
2021-02-15 18:00:00 12.8 13 Este 28 Sudeste 0 -- -- 63
2021-02-15 17:00:00 14 16 Este 26 Este 0 -- -- 58
2021-02-15 16:00:00 14.2 13 Este 27 Este 0 -- -- 58
2021-02-15 15:00:00 13.5 18 Sudeste 32 Este 0 -- -- 59
2021-02-15 14:00:00 12.7 15 Este 28 Este 0 -- -- 67
2021-02-15 13:00:00 11.7 17 Sudeste 28 Este 0 -- -- 69
2021-02-15 12:00:00 9.6 16 Sudeste 27 Este 0 -- -- 75
2021-02-15 11:00:00 7.9 17 Este 28 Este 0 -- -- 81
2021-02-15 10:00:00 5.8 15 Este 29 Este 0 -- -- 88
2021-02-15 09:00:00 4 15 Este 26 Este 0 -- -- 92
2021-02-15 08:00:00 3.8 13 Sudeste 24 Este 0 -- -- 91
2021-02-15 07:00:00 3.9 8 Este 20 Este 0 -- -- 91
2021-02-15 06:00:00 4.1 10 Este 22 Este 0 -- -- 89
2021-02-15 05:00:00 4.8 13 Este 21 Este 0 -- -- 87
2021-02-15 04:00:00 4.7 13 Este 19 Este 0 -- -- 88
2021-02-15 03:00:00 5.2 13 Este 20 Este 0 -- -- 86
2021-02-15 02:00:00 5.2 9 Este 20 Este 0 -- -- 85
2021-02-15 01:00:00 6.1 12 Este 18 Este 0 -- -- 83
2021-02-15 00:00:00 6 9 Este 15 Este 0 -- -- 85
2021-02-14 23:00:00 6.7 10 Este 17 Este 0 -- -- 83
2021-02-14 22:00:00 7.3 10 Este 15 Este 0 -- -- 83
2021-02-14 21:00:00 7.7 8 Sudeste 13 Este 0 -- -- 83
2021-02-14 20:00:00 9.5 5 Sudeste 7 Sudeste 0 -- -- 75
2021-02-14 19:00:00 10.7 4 Sur 8 Sudeste 0 -- -- 72
2021-02-14 18:00:00 12.7 4 Sudeste 11 Este 0 -- -- 67
2021-02-14 17:00:00 13.4 8 Sudeste 23 Sudeste 0 -- -- 61
2021-02-14 16:00:00 13.8 12 Sudeste 21 Sudeste 0 -- -- 58
2021-02-14 15:00:00 13 11 Sudeste 19 Sudeste 0 -- -- 63
2021-02-14 14:00:00 11.7 10 Sudeste 22 Sur 0 -- -- 66
2021-02-14 13:00:00 10.6 14 Sudeste 25 Sudeste 0 -- -- 75
2021-02-14 12:00:00 9.4 12 Sudeste 20 Sudeste 0 -- -- 84
2021-02-14 11:00:00 6.7 12 Sudeste 20 Sudeste 0 -- -- 97
2021-02-14 10:00:00 3.7 6 Sudeste 13 Sudeste 0 -- -- 98
2021-02-14 09:00:00 2.3 6 Sudeste 13 Sudeste 0 -- -- 98
2021-02-14 08:00:00 2 4 Sudeste 7 Sudeste 0 -- -- 98
2021-02-14 07:00:00 1.5 3 Este 8 Sudeste 0 -- -- 97
2021-02-14 06:00:00 1.4 3 Sudeste 5 Sudeste 0.2 -- -- 97
2021-02-14 05:00:00 1.6 3 Nordeste 8 Nordeste 0 -- -- 97
2021-02-14 04:00:00 1.7 4 Nordeste 8 Nordeste 0 -- -- 96
2021-02-14 03:00:00 2 4 Nordeste 10 Este 0 -- -- 96
2021-02-14 02:00:00 3.1 6 Sudeste 10 Sudeste 0 -- -- 96
2021-02-14 01:00:00 3.5 4 Sudeste 12 Este 0 -- -- 95
2021-02-14 00:00:00 4.3 3 Nordeste 6 Nordeste 0 -- -- 94
2021-02-13 23:00:00 4.5 2 Nordeste 6 Oeste 0 -- -- 93
2021-02-13 22:00:00 5.7 5 Oeste 7 Oeste 0 -- -- 90
2021-02-13 21:00:00 6.9 0 Calma 6 Oeste 0 -- -- 89
2021-02-13 20:00:00 7 3 Noroeste 5 Noroeste 0 -- -- 89
2021-02-13 19:00:00 7.5 4 Noroeste 11 Noroeste 0 -- -- 85
2021-02-13 18:00:00 9.4 8 Noroeste 18 Noroeste 0 -- -- 78
2021-02-13 17:00:00 9.2 10 Oeste 20 Oeste 0 -- -- 77
2021-02-13 16:00:00 9.6 14 Oeste 23 Oeste 0 -- -- 77
2021-02-13 15:00:00 9 10 Oeste 19 Sudoeste 0 -- -- 79
2021-02-13 14:00:00 7.4 10 Oeste 20 Oeste 0 -- -- 82
2021-02-13 13:00:00 7.1 10 Oeste 22 Oeste 0 -- -- 89
2021-02-13 08:00:00 -- -- -- -- -- -- -- -- --
2021-02-13 07:00:00 -- -- -- -- -- -- -- -- --
2021-02-13 06:00:00 -0.2 3 Norte 5 Norte 0 -- -- 97
2021-02-13 05:00:00 -0.2 3 Norte 4 Nordeste 0 -- -- 97
2021-02-13 04:00:00 0.5 2 Nordeste 4 Norte 0.2 -- -- 96
2021-02-13 03:00:00 2.7 0 Calma 5 Sur 0 -- -- 96
2021-02-13 02:00:00 3.8 3 Oeste 11 Oeste 0 -- -- 96
2021-02-13 01:00:00 4.2 6 Oeste 9 Oeste 0 -- -- 96
2021-02-13 00:00:00 4.4 0 Calma 8 Oeste 0 -- -- 95
2021-02-12 23:00:00 4.9 4 Sudoeste 8 Sur 0 -- -- 94
2021-02-12 22:00:00 5.9 3 Noroeste 9 Oeste 0 -- -- 93
2021-02-12 21:00:00 6.8 4 Noroeste 6 Norte 0 -- -- 94
2021-02-12 20:00:00 6.9 3 Norte 18 Norte 0.4 -- -- 93
2021-02-12 19:00:00 7.5 10 Norte 32 Noroeste 0.4 -- -- 91
2021-02-12 18:00:00 8.5 14 Norte 37 Noroeste 0.4 -- -- 87
2021-02-12 17:00:00 10.4 15 Oeste 36 Noroeste 0 -- -- 73
2021-02-12 16:00:00 10.2 18 Oeste 36 Oeste 0 -- -- 76
2021-02-12 15:00:00 9 19 Oeste 29 Oeste 0.2 -- -- 83
2021-02-12 14:00:00 8.3 18 Oeste 32 Oeste 0 -- -- 88
2021-02-12 13:00:00 7.3 19 Noroeste 34 Oeste 0.4 -- -- 92
2021-02-12 12:00:00 7.2 19 Oeste 37 Oeste 0.2 -- -- 90
2021-02-12 11:00:00 6.7 20 Oeste 39 Oeste 0.2 -- -- 93
2021-02-12 10:00:00 6.9 21 Oeste 38 Oeste 0.4 -- -- 94
2021-02-12 09:00:00 7.1 17 Oeste 28 Sudoeste 0 -- -- 95
2021-02-12 08:00:00 7.3 18 Oeste 34 Oeste 0 -- -- 95
2021-02-12 07:00:00 7.6 12 Sudoeste 32 Sudoeste 0.2 -- -- 96
2021-02-12 06:00:00 7.6 15 Sudoeste 27 Sudoeste 0.6 -- -- 96
2021-02-12 05:00:00 7.1 5 Sudoeste 17 Oeste 1 -- -- 95
2021-02-12 04:00:00 7.3 5 Oeste 11 Noroeste 0.8 -- -- 94
2021-02-12 03:00:00 7.2 5 Sudeste 12 Sudeste 0 -- -- 93
2021-02-12 02:00:00 7.4 6 Sudeste 9 Sudeste 0 -- -- 95
2021-02-12 01:00:00 7.5 6 Sudeste 8 Sudeste 0 -- -- 95
2021-02-12 00:00:00 7.9 5 Sudeste 8 Sudeste 0 -- -- 94
2021-02-11 23:00:00 8.6 3 Sudeste 9 Sur 0 -- -- 94
2021-02-11 22:00:00 9.3 6 Sur 10 Sur 0 -- -- 95
2021-02-11 21:00:00 9.5 6 Sur 12 Sudoeste 0 -- -- 94
2021-02-11 20:00:00 10 5 Sur 12 Sudoeste 0 -- -- 95
2021-02-11 19:00:00 10.5 2 Sudeste 9 Sur 1 -- -- 94
2021-02-11 18:00:00 10.7 0 Calma 10 Oeste 0 -- -- 93
2021-02-11 17:00:00 10.8 8 Sudoeste 25 Sur 0.2 -- -- 93
2021-02-11 16:00:00 12.3 9 Oeste 22 Sudoeste 0 -- -- 79
2021-02-11 15:00:00 12.2 13 Oeste 22 Oeste 0 -- -- 82
2021-02-11 14:00:00 10.4 10 Oeste 19 Oeste 0 -- -- 93
2021-02-11 13:00:00 10.1 9 Oeste 15 Sudoeste 0.4 -- -- 97
2021-02-11 12:00:00 8.9 4 Oeste 11 Oeste 0 -- -- 97
2021-02-11 11:00:00 7.6 4 Sudoeste 9 Sudoeste 0 -- -- 98
2021-02-11 10:00:00 6.1 0 Calma 4 Este 0 -- -- 97
2021-02-11 09:00:00 4.9 0 Calma 2 Este 0 -- -- 97
2021-02-11 08:00:00 4.6 0 Calma 5 Norte 0.2 -- -- 97
2021-02-11 07:00:00 4.4 0 Calma 5 Este 0.2 -- -- 96
2021-02-11 06:00:00 4.2 3 Este 5 Este 0.2 -- -- 96
2021-02-11 05:00:00 3.9 3 Este 7 Nordeste 0.2 -- -- 96
2021-02-11 04:00:00 4 0 Calma 6 Oeste 0.8 -- -- 94
2021-02-11 03:00:00 4.1 3 Noroeste 10 Sudoeste 0 -- -- 87
2021-02-11 02:00:00 3 5 Noroeste 12 Sur 0 -- -- 90
2021-02-11 01:00:00 2 3 Norte 4 Nordeste 0 -- -- 91
2021-02-11 00:00:00 2.5 0 Calma 7 Sudoeste 0 -- -- 87
2021-02-10 23:00:00 3.2 0 Calma 4 Noroeste 0 -- -- 87
2021-02-10 22:00:00 4.4 0 Calma 5 Sur 0 -- -- 84
2021-02-10 21:00:00 5 3 Sudoeste 6 Oeste 0 -- -- 80
2021-02-10 20:00:00 5.8 6 Oeste 15 Oeste 0 -- -- 76
2021-02-10 19:00:00 6.6 6 Oeste 25 Oeste 0 -- -- 72
2021-02-10 18:00:00 8.2 13 Oeste 26 Oeste 0 -- -- 68
2021-02-10 17:00:00 8.1 13 Oeste 30 Oeste 0 -- -- 64
2021-02-10 16:00:00 7.8 18 Oeste 29 Noroeste 0 -- -- 64
2021-02-10 15:00:00 7.3 17 Oeste 33 Oeste 0 -- -- 70
2021-02-10 14:00:00 6.7 17 Oeste 33 Oeste 0 -- -- 71
2021-02-10 13:00:00 5.6 19 Oeste 38 Oeste 0 -- -- 74
2021-02-10 12:00:00 5.3 18 Oeste 36 Oeste 0 -- -- 80
2021-02-10 11:00:00 4.9 20 Oeste 36 Oeste 0 -- -- 86
2021-02-10 10:00:00 3.6 16 Oeste 36 Oeste 0 -- -- 91
2021-02-10 09:00:00 3.2 21 Oeste 33 Sudoeste 0 -- -- 91
2021-02-10 08:00:00 3.2 19 Oeste 38 Oeste 0 -- -- 92
2021-02-10 07:00:00 3.1 19 Oeste 40 Oeste 0 -- -- 93
2021-02-10 06:00:00 3.1 22 Oeste 38 Oeste 0 -- -- 94
2021-02-10 05:00:00 2.6 19 Oeste 37 Sudoeste 0.4 -- -- 96
2021-02-10 04:00:00 2.1 18 Sudoeste 36 Sudoeste 1.6 -- -- 94
2021-02-10 03:00:00 3.4 24 Sudoeste 42 Oeste 1.2 -- -- 94
2021-02-10 02:00:00 3.6 15 Sudoeste 37 Oeste 0 -- -- 95
2021-02-10 01:00:00 3.8 13 Sudoeste 30 Sudoeste 0.4 -- -- 96
2021-02-10 00:00:00 3.3 12 Sudoeste 30 Sudoeste 1.4 -- -- 96
2021-02-09 23:00:00 3.3 14 Sudoeste 31 Sudoeste 0.4 -- -- 95
2021-02-09 22:00:00 2.3 13 Sudoeste 24 Sur 0 -- -- 97
2021-02-09 21:00:00 1.2 12 Sur 29 Sur 1.8 -- -- 95
2021-02-09 20:00:00 2.8 14 Sudoeste 25 Sudoeste 0.8 -- -- 92
2021-02-09 19:00:00 3.4 3 Oeste 30 Sudoeste 0 -- -- 90
2021-02-09 18:00:00 3.9 17 Sudoeste 37 Oeste 0 -- -- 91
2021-02-09 17:00:00 3.8 18 Oeste 34 Oeste 0 -- -- 93
2021-02-09 16:00:00 3.2 14 Sudoeste 28 Sudoeste 0.2 -- -- 95
2021-02-09 15:00:00 3 19 Oeste 66 Oeste 3.4 -- -- 95
2021-02-09 14:00:00 6 29 Oeste 58 Oeste 2.8 -- -- 90
2021-02-09 13:00:00 6.5 18 Sur 26 Sur 0.6 -- -- 89
2021-02-09 12:00:00 6.1 13 Sur 21 Sur 0.2 -- -- 90
2021-02-09 11:00:00 5.1 10 Sudeste 18 Sudeste 0.2 -- -- 93
2021-02-09 10:00:00 4.5 10 Sudeste 17 Sudeste 0 -- -- 94
2021-02-09 09:00:00 4.6 11 Sur 18 Sur 0.2 -- -- 94
2021-02-09 08:00:00 3.6 7 Sur 19 Sur 1.2 -- -- 96
2021-02-09 07:00:00 2.7 11 Sur 24 Sudoeste 1.4 -- -- 96
2021-02-09 06:00:00 1.3 5 Sudeste 18 Sur 1.6 -- -- 95
2021-02-09 05:00:00 2.2 12 Sudoeste 36 Sudoeste 1.6 -- -- 94
2021-02-09 04:00:00 3.4 27 Sudoeste 41 Sudoeste 1 -- -- 92
2021-02-09 03:00:00 4.6 18 Sudoeste 32 Sudoeste 0 -- -- 91
2021-02-09 02:00:00 4.8 17 Sudoeste 30 Oeste 0 -- -- 93
2021-02-09 01:00:00 5.1 22 Oeste 39 Oeste 0 -- -- 92
2021-02-09 00:00:00 5.2 19 Oeste 37 Oeste 0 -- -- 93
2021-02-08 23:00:00 5 15 Oeste 34 Oeste 0 -- -- 93
2021-02-08 22:00:00 4.8 17 Oeste 40 Oeste 0 -- -- 92
2021-02-08 21:00:00 4.7 18 Oeste 38 Oeste 0 -- -- 91
2021-02-08 20:00:00 4.7 23 Oeste 43 Oeste 0 -- -- 90
2021-02-08 19:00:00 4.7 18 Oeste 41 Oeste 0 -- -- 92
2021-02-08 18:00:00 4.9 22 Oeste 37 Oeste 0.4 -- -- 92
2021-02-08 17:00:00 4.8 20 Oeste 47 Oeste 0.6 -- -- 91
2021-02-08 16:00:00 5.2 21 Oeste 50 Sudoeste 0.4 -- -- 89
2021-02-08 15:00:00 6.3 26 Oeste 50 Sudoeste 0.2 -- -- 82
2021-02-08 14:00:00 5.5 21 Oeste 39 Oeste 0 -- -- 87
2021-02-08 13:00:00 4.8 19 Oeste 35 Oeste 0 -- -- 92
2021-02-08 12:00:00 3.8 18 Oeste 41 Oeste 0.6 -- -- 93
2021-02-08 11:00:00 4.5 18 Oeste 39 Oeste 0 -- -- 91
2021-02-08 10:00:00 4.3 22 Oeste 37 Oeste 0 -- -- 93
2021-02-08 09:00:00 4.3 18 Oeste 30 Oeste 0 -- -- 94
2021-02-08 08:00:00 4.6 15 Sudoeste 28 Sudoeste 0.2 -- -- 95
2021-02-08 07:00:00 4.9 13 Sudoeste 26 Sudoeste 0 -- -- 94
2021-02-08 06:00:00 4.8 14 Sudoeste 42 Sudoeste 0.2 -- -- 94
2021-02-08 05:00:00 5.3 14 Sudoeste 24 Sudoeste 0.2 -- -- 96
2021-02-08 04:00:00 5.1 10 Oeste 23 Sudoeste 0.4 -- -- 96
2021-02-08 03:00:00 4.8 12 Sudoeste 37 Sudoeste 1.4 -- -- 96
2021-02-08 02:00:00 3.7 6 Sudoeste 13 Sudoeste 1.2 -- -- 97
2021-02-08 01:00:00 3.3 3 Sudeste 8 Sur 0.4 -- -- 97
2021-02-08 00:00:00 3.2 6 Sudoeste 14 Oeste 0.2 -- -- 97
2021-02-07 23:00:00 2.9 8 Sudoeste 21 Sudoeste 0 -- -- 96
2021-02-07 22:00:00 2.5 8 Sudoeste 17 Sudoeste 0.4 -- -- 96
2021-02-07 21:00:00 1.6 9 Oeste 19 Oeste 1.4 -- -- 95
2021-02-07 20:00:00 0.9 8 Oeste 30 Sudoeste 1 -- -- 94
2021-02-07 19:00:00 2.5 18 Oeste 33 Sudoeste 1.2 -- -- 91
2021-02-07 18:00:00 4.4 14 Oeste 28 Sudoeste 0.2 -- -- 83
2021-02-07 17:00:00 4.8 12 Oeste 32 Oeste 0 -- -- 77
2021-02-07 16:00:00 5.7 14 Oeste 26 Oeste 0 -- -- 71
2021-02-07 15:00:00 5.5 13 Oeste 29 Oeste 0 -- -- 69
2021-02-07 14:00:00 4.7 14 Oeste 26 Oeste 0 -- -- 67
2021-02-07 13:00:00 4.4 13 Oeste 22 Oeste 0 -- -- 69
2021-02-07 12:00:00 4.2 7 Oeste 17 Oeste 0 -- -- 73
2021-02-07 11:00:00 2.3 8 Oeste 14 Oeste 0 -- -- 77
2021-02-07 10:00:00 0.8 10 Oeste 18 Oeste 0 -- -- 85
2021-02-07 09:00:00 -0.8 8 Oeste 17 Oeste 0 -- -- 89
2021-02-07 08:00:00 -1.3 8 Oeste 15 Sudoeste 0 -- -- 88
2021-02-07 07:00:00 -0.6 5 Noroeste 9 Noroeste 0 -- -- 82
2021-02-07 06:00:00 -0.2 5 Norte 16 Noroeste 0 -- -- 81
2021-02-07 05:00:00 1.7 12 Noroeste 21 Norte 0 -- -- 76
2021-02-07 04:00:00 2.1 9 Noroeste 21 Noroeste 0 -- -- 77
2021-02-07 03:00:00 2.6 9 Norte 16 Noroeste 0 -- -- 73
2021-02-07 02:00:00 2.9 6 Norte 14 Norte 0 -- -- 75
2021-02-07 01:00:00 3.1 9 Norte 15 Norte 0 -- -- 77
2021-02-07 00:00:00 3.6 8 Norte 18 Norte 0 -- -- 78
2021-02-06 23:00:00 4.1 14 Norte 22 Norte 0 -- -- 81
2021-02-06 22:00:00 4.8 2 Noroeste 9 Norte 0 -- -- 79
2021-02-06 21:00:00 5 5 Norte 27 Nordeste 0 -- -- 78
2021-02-06 20:00:00 4.8 17 Norte 30 Norte 0 -- -- 81
2021-02-06 19:00:00 5.7 10 Norte 18 Noroeste 0 -- -- 77
2021-02-06 18:00:00 6.3 10 Noroeste 30 Norte 0 -- -- 77
2021-02-06 17:00:00 7.3 18 Norte 31 Norte 0 -- -- 71
2021-02-06 16:00:00 7.8 17 Norte 27 Norte 0 -- -- 75
2021-02-06 15:00:00 7.7 15 Norte 24 Nordeste 0 -- -- 79
2021-02-06 14:00:00 8 11 Norte 20 Oeste 0 -- -- 82
2021-02-06 13:00:00 8.9 6 Oeste 14 Oeste 0 -- -- 82
2021-02-06 12:00:00 7.6 7 Oeste 14 Oeste 0 -- -- 88
2021-02-06 11:00:00 6.8 9 Oeste 17 Oeste 0.6 -- -- 95
2021-02-06 10:00:00 6.3 9 Sudoeste 15 Sudoeste 0.4 -- -- 95
2021-02-06 09:00:00 6.1 4 Sur 12 Sudeste 0.4 -- -- 94
2021-02-06 08:00:00 6.1 7 Sudeste 14 Este 0 -- -- 94
2021-02-06 07:00:00 6.2 8 Este 16 Este 0 -- -- 94
2021-02-06 06:00:00 6.3 6 Este 18 Este 0 -- -- 93
2021-02-06 05:00:00 6.3 5 Este 19 Sudeste 0 -- -- 92
2021-02-06 04:00:00 6.5 13 Sudeste 22 Sudeste 0 -- -- 91
2021-02-06 03:00:00 6.8 13 Este 27 Este 0 -- -- 89
2021-02-06 02:00:00 6.9 14 Sudeste 25 Este 1 -- -- 91
2021-02-06 01:00:00 7.6 7 Sur 22 Sudeste 1.2 -- -- 90
2021-02-06 00:00:00 8.4 17 Sudeste 31 Este 0 -- -- 82
2021-02-05 23:00:00 8.4 20 Este 36 Sudeste 0 -- -- 81
2021-02-05 22:00:00 9 19 Sudeste 33 Este 0 -- -- 77
2021-02-05 21:00:00 10 18 Este 32 Sudeste 0 -- -- 73
2021-02-05 20:00:00 11.5 17 Este 30 Sudeste 0 -- -- 69
2021-02-05 19:00:00 12.7 19 Sudeste 28 Sudeste 0 -- -- 59
2021-02-05 18:00:00 13.5 17 Sudeste 27 Sudeste 0 -- -- 57
2021-02-05 17:00:00 14.7 17 Sudeste 33 Sudeste 0 -- -- 53
2021-02-05 16:00:00 15 17 Sudeste 28 Sudeste 0 -- -- 53
2021-02-05 15:00:00 14.7 16 Sudeste 25 Sudeste 0 -- -- 53
2021-02-05 14:00:00 14.1 13 Sudeste 24 Sudeste 0 -- -- 61
2021-02-05 13:00:00 13.2 8 Este 19 Este 0 -- -- 64
2021-02-05 12:00:00 10.6 4 Sudoeste 12 Sudoeste 0 -- -- 81
2021-02-05 11:00:00 10.1 2 Norte 12 Este 0 -- -- 77
2021-02-05 10:00:00 8.7 7 Nordeste 12 Nordeste 0 -- -- 84
2021-02-05 09:00:00 7.2 7 Nordeste 9 Nordeste 0 -- -- 87
2021-02-05 08:00:00 7 6 Este 10 Este 0 -- -- 86
2021-02-05 07:00:00 7.1 3 Este 17 Este 0 -- -- 86
2021-02-05 06:00:00 7.6 12 Este 22 Este 0 -- -- 85
2021-02-05 05:00:00 7.3 11 Este 23 Este 0.2 -- -- 89
2021-02-05 04:00:00 7.8 9 Este 18 Este 0 -- -- 86
2021-02-05 03:00:00 7.6 7 Este 19 Este 0 -- -- 86
2021-02-05 02:00:00 7.5 12 Este 20 Este 0 -- -- 86
2021-02-05 01:00:00 6.7 14 Este 23 Sudeste 0 -- -- 90
2021-02-05 00:00:00 4.7 4 Nordeste 9 Este 0 -- -- 96
2021-02-04 23:00:00 5.2 5 Este 8 Este 0 -- -- 96
2021-02-04 22:00:00 5.5 3 Sudeste 6 Sudeste 0 -- -- 95
2021-02-04 21:00:00 6.1 4 Sur 6 Sudeste 0 -- -- 93
2021-02-04 20:00:00 6.8 4 Oeste 10 Oeste 0 -- -- 92
2021-02-04 19:00:00 8.1 8 Oeste 23 Sudoeste 0 -- -- 89
2021-02-04 18:00:00 10.9 15 Sudoeste 27 Sudoeste 0 -- -- 70
2021-02-04 17:00:00 11.9 17 Sur 31 Sudoeste 0 -- -- 63
2021-02-04 16:00:00 12.4 18 Sudeste 30 Sudeste 0 -- -- 66
2021-02-04 15:00:00 11.9 17 Sudeste 37 Sudeste 0 -- -- 73
2021-02-04 14:00:00 11.7 19 Sudeste 35 Sudeste 0 -- -- 77
2021-02-04 13:00:00 11.2 21 Sudeste 32 Sudeste 0 -- -- 84
2021-02-04 12:00:00 9.1 14 Sudeste 26 Sudeste 0 -- -- 92
2021-02-04 11:00:00 7.9 12 Este 19 Este 0 -- -- 96
2021-02-04 10:00:00 7.1 9 Este 16 Sudeste 0 -- -- 97
2021-02-04 09:00:00 6.5 9 Sudeste 14 Sudeste 0 -- -- 97
2021-02-04 08:00:00 6.4 4 Sudeste 12 Sudeste 0 -- -- 97
2021-02-04 07:00:00 6.4 7 Sudeste 10 Sudeste 0 -- -- 97
2021-02-04 06:00:00 6.5 6 Sudeste 9 Sur 0.2 -- -- 97
2021-02-04 05:00:00 6.8 5 Sur 12 Sudoeste 0.4 -- -- 97
2021-02-04 04:00:00 7.1 5 Sur 9 Sur 0.2 -- -- 97
2021-02-04 03:00:00 7.3 4 Sudeste 12 Sur 0.2 -- -- 97
2021-02-04 02:00:00 7.6 5 Sur 9 Sur 0.8 -- -- 97
2021-02-04 01:00:00 7.7 2 Sur 4 Sur 1.2 -- -- 97
2021-02-04 00:00:00 7.8 3 Sudoeste 15 Oeste 0.2 -- -- 97
2021-02-03 23:00:00 8 6 Oeste 17 Oeste 1.6 -- -- 96
2021-02-03 22:00:00 8 6 Sur 13 Sudeste 0.4 -- -- 96
2021-02-03 21:00:00 8.1 2 Este 8 Sudeste 0.6 -- -- 96
2021-02-03 20:00:00 8.2 0 Calma 6 Sudoeste 0 -- -- 95
2021-02-03 19:00:00 8.3 6 Oeste 13 Oeste 0.6 -- -- 93
2021-02-03 18:00:00 8.4 3 Noroeste 15 Noroeste 0.2 -- -- 93
2021-02-03 17:00:00 8.9 5 Norte 16 Norte 0 -- -- 90
2021-02-03 16:00:00 9.5 7 Noroeste 20 Oeste 0 -- -- 90
2021-02-03 15:00:00 9.4 8 Noroeste 37 Sudoeste 0 -- -- 92
2021-02-03 14:00:00 10 10 Oeste 28 Sudoeste 0.2 -- -- 89
2021-02-03 13:00:00 9.6 19 Sudoeste 39 Sudoeste 0 -- -- 88
2021-02-03 12:00:00 9.3 18 Sudoeste 36 Sudoeste 0 -- -- 92
2021-02-03 11:00:00 8.7 18 Sudoeste 29 Sudoeste 0.2 -- -- 95
2021-02-03 10:00:00 7.9 4 Sudoeste 9 Sudoeste 0.4 -- -- 96
2021-02-03 09:00:00 6.8 0 Calma 9 Sur 0.8 -- -- 95
2021-02-03 08:00:00 6.6 4 Sudeste 11 Este 0.2 -- -- 94
2021-02-03 07:00:00 7.1 3 Sudeste 12 Sudoeste 0 -- -- 90
2021-02-03 06:00:00 6.9 3 Sudeste 10 Sur 0 -- -- 90
2021-02-03 05:00:00 6.8 5 Sudeste 11 Este 0 -- -- 90
2021-02-03 04:00:00 6.7 7 Este 13 Este 0 -- -- 90
2021-02-03 03:00:00 6.1 4 Este 16 Este 0 -- -- 92
2021-02-03 02:00:00 5.8 6 Este 8 Este 0 -- -- 89
2021-02-03 01:00:00 7 5 Oeste 14 Oeste 0 -- -- 87
2021-02-03 00:00:00 7.9 7 Sudoeste 15 Sudoeste 0 -- -- 87
2021-02-02 23:00:00 8.1 6 Sudoeste 18 Sudoeste 0 -- -- 89
2021-02-02 22:00:00 8.3 9 Oeste 18 Sudoeste 0 -- -- 88
2021-02-02 21:00:00 8 4 Sudoeste 8 Sudoeste 0 -- -- 89
2021-02-02 20:00:00 7.6 6 Sudeste 8 Sudeste 0 -- -- 87
2021-02-02 19:00:00 9.3 2 Este 5 Este 0 -- -- 82
2021-02-02 18:00:00 10.5 3 Sudeste 9 Sudoeste 0 -- -- 81
2021-02-02 17:00:00 11 5 Oeste 17 Oeste 0 -- -- 76
2021-02-02 16:00:00 10.8 11 Oeste 18 Oeste 0 -- -- 77
2021-02-02 15:00:00 10.7 12 Oeste 22 Sudoeste 0 -- -- 77
2021-02-02 14:00:00 10.1 12 Oeste 25 Oeste 0 -- -- 81
2021-02-02 13:00:00 9.8 12 Sudoeste 33 Sudoeste 0 -- -- 88
2021-02-02 12:00:00 9.4 16 Sudoeste 31 Sudoeste 0 -- -- 94
2021-02-02 11:00:00 8.7 8 Sudoeste 15 Sudoeste 0.2 -- -- 97
2021-02-02 10:00:00 8.2 5 Oeste 23 Oeste 0 -- -- 97
2021-02-02 09:00:00 7.9 14 Oeste 29 Sudoeste 0.2 -- -- 97
2021-02-02 08:00:00 8.1 11 Sudoeste 26 Sudoeste 0 -- -- 96
2021-02-02 07:00:00 8.2 12 Oeste 23 Oeste 0 -- -- 95
2021-02-02 06:00:00 8.3 7 Oeste 16 Sudoeste 0 -- -- 95
2021-02-02 05:00:00 8.2 8 Sudoeste 19 Sudoeste 0 -- -- 94
2021-02-02 04:00:00 8.1 9 Sudoeste 19 Oeste 0 -- -- 94
2021-02-02 03:00:00 7.7 10 Oeste 15 Oeste 0 -- -- 93
2021-02-02 02:00:00 7.1 6 Sudoeste 15 Oeste 0 -- -- 92
2021-02-02 01:00:00 6.9 8 Oeste 22 Oeste 0 -- -- 90
2021-02-02 00:00:00 6.8 5 Oeste 17 Oeste 0 -- -- 88
2021-02-01 23:00:00 7.2 3 Oeste 11 Oeste 0 -- -- 89
2021-02-01 22:00:00 7.7 3 Oeste 19 Oeste 0 -- -- 87
2021-02-01 21:00:00 7.9 4 Noroeste 28 Oeste 0 -- -- 84
2021-02-01 20:00:00 8.7 14 Oeste 23 Oeste 0 -- -- 81
2021-02-01 19:00:00 9.1 9 Oeste 34 Oeste 0 -- -- 80
2021-02-01 18:00:00 9.7 17 Oeste 42 Oeste 0 -- -- 77
2021-02-01 17:00:00 10.1 21 Oeste 48 Oeste 0 -- -- 76
2021-02-01 16:00:00 10 27 Oeste 47 Oeste 0 -- -- 78
2021-02-01 15:00:00 10.8 32 Oeste 50 Sudoeste 0 -- -- 78
2021-02-01 14:00:00 10.7 28 Oeste 49 Oeste 0 -- -- 78
2021-02-01 13:00:00 9 27 Oeste 48 Oeste 0 -- -- 83
2021-02-01 12:00:00 8.2 25 Oeste 45 Oeste 0 -- -- 85
2021-02-01 11:00:00 7.2 25 Oeste 51 Oeste 0 -- -- 88
2021-02-01 10:00:00 6.6 19 Oeste 41 Oeste 0 -- -- 90
2021-02-01 09:00:00 6.2 19 Oeste 39 Oeste 0 -- -- 90
2021-02-01 08:00:00 6.1 21 Oeste 37 Oeste 0 -- -- 89
2021-02-01 07:00:00 6.1 23 Oeste 48 Oeste 0 -- -- 88
2021-02-01 06:00:00 6.2 19 Oeste 39 Oeste 0 -- -- 87
2021-02-01 05:00:00 6.1 19 Oeste 45 Oeste 0 -- -- 87
2021-02-01 04:00:00 6.6 24 Oeste 52 Oeste 0 -- -- 86
2021-02-01 03:00:00 7 25 Oeste 58 Oeste 0 -- -- 86
2021-02-01 02:00:00 7.6 32 Oeste 58 Oeste 0 -- -- 86
2021-02-01 01:00:00 8.4 33 Oeste 59 Noroeste 0 -- -- 85
2021-02-01 00:00:00 8.7 32 Oeste 60 Oeste 0 -- -- 86
2021-01-31 23:00:00 8.9 25 Oeste 47 Oeste 0 -- -- 84
2021-01-31 22:00:00 9.3 26 Oeste 40 Oeste 0 -- -- 82
2021-01-31 21:00:00 9.5 16 Oeste 38 Oeste 0 -- -- 82
2021-01-31 20:00:00 10.2 24 Oeste 42 Oeste 0 -- -- 82
2021-01-31 19:00:00 10 15 Oeste 34 Oeste 0 -- -- 86
2021-01-31 18:00:00 9.9 14 Sudoeste 25 Sudoeste 0 -- -- 95
2021-01-31 17:00:00 9.4 14 Sudoeste 36 Oeste 0 -- -- 96
2021-01-31 16:00:00 8.9 21 Oeste 44 Oeste 0 -- -- 96
2021-01-31 15:00:00 8.7 24 Oeste 40 Oeste 0 -- -- 96
2021-01-31 14:00:00 7.9 17 Oeste 32 Oeste 0 -- -- 97
2021-01-31 13:00:00 7.1 18 Oeste 37 Oeste 0.2 -- -- 97
2021-01-31 12:00:00 6.2 19 Oeste 34 Oeste 1.6 -- -- 97
2021-01-31 11:00:00 5.4 16 Oeste 31 Oeste 0.4 -- -- 96
2021-01-31 10:00:00 4.8 15 Oeste 37 Oeste 0.6 -- -- 95
2021-01-31 09:00:00 4.7 15 Oeste 32 Oeste 0 -- -- 90
2021-01-31 08:00:00 4.5 17 Oeste 33 Oeste 0 -- -- 88
2021-01-31 07:00:00 4.3 20 Oeste 40 Oeste 0 -- -- 88
2021-01-31 06:00:00 4.2 24 Oeste 42 Sudoeste 0 -- -- 88
2021-01-31 05:00:00 4.1 19 Oeste 42 Oeste 0 -- -- 88
2021-01-31 04:00:00 4.3 23 Oeste 41 Sudoeste 0 -- -- 89
2021-01-31 03:00:00 4.5 24 Oeste 44 Sudoeste 0 -- -- 89
2021-01-31 02:00:00 4.1 20 Oeste 34 Oeste 0 -- -- 88
2021-01-31 01:00:00 4.1 18 Oeste 42 Sudoeste 0 -- -- 88
2021-01-31 00:00:00 4.1 21 Oeste 39 Oeste 0 -- -- 89
2021-01-30 23:00:00 3.9 21 Oeste 40 Oeste 0 -- -- 89
2021-01-30 22:00:00 4.4 23 Oeste 44 Noroeste 1.2 -- -- 90
2021-01-30 21:00:00 4.7 18 Oeste 47 Oeste 0.4 -- -- 92
2021-01-30 20:00:00 5.4 28 Oeste 44 Oeste 0.2 -- -- 87
2021-01-30 19:00:00 5.5 26 Oeste 52 Oeste 0 -- -- 84
2021-01-30 18:00:00 6.3 29 Oeste 58 Oeste 0.2 -- -- 80
2021-01-30 17:00:00 6.7 26 Oeste 57 Oeste 0.2 -- -- 78
2021-01-30 16:00:00 7.2 32 Oeste 58 Oeste 0 -- -- 73
2021-01-30 15:00:00 7.2 27 Oeste 48 Oeste 0 -- -- 72
2021-01-30 14:00:00 6.7 24 Oeste 54 Oeste 0 -- -- 75
2021-01-30 13:00:00 7.9 33 Oeste 70 Oeste 0 -- -- 68
2021-01-30 12:00:00 7.8 30 Oeste 55 Oeste 0.2 -- -- 74
2021-01-30 11:00:00 6.6 31 Oeste 60 Oeste 0 -- -- 83
2021-01-30 10:00:00 6.3 21 Oeste 43 Oeste 0 -- -- 90
2021-01-30 09:00:00 6.1 22 Oeste 40 Oeste 0 -- -- 93
2021-01-30 08:00:00 6 15 Oeste 37 Oeste 0 -- -- 94
2021-01-30 07:00:00 6.3 15 Sudoeste 30 Sudoeste 0 -- -- 93
2021-01-30 06:00:00 6.2 23 Sudoeste 49 Oeste 3.4 -- -- 93
2021-01-30 05:00:00 7.7 18 Sudoeste 39 Sudoeste 1 -- -- 93
2021-01-30 04:00:00 8.3 17 Sudoeste 39 Sudoeste 0 -- -- 90
2021-01-30 03:00:00 8.6 13 Oeste 24 Sudoeste 0 -- -- 89
2021-01-30 02:00:00 8.5 12 Oeste 23 Oeste 0 -- -- 90
2021-01-30 01:00:00 8.5 13 Oeste 28 Oeste 0 -- -- 92
2021-01-30 00:00:00 8.1 8 Oeste 20 Oeste 0 -- -- 92